sensor_id;sensor_type;location;lat;lon;timestamp;pressure;altitude;pressure_sealevel;temperature;humidity
60089;BME280;45961;53.574;55.878;2023-05-20T00:00:46;100309.59;;;10.50;98.55
60089;BME280;45961;53.574;55.878;2023-05-20T00:01:49;100301.91;;;10.57;98.31
60089;BME280;45961;53.574;55.878;2023-05-20T00:02:50;100303.56;;;10.52;98.16
60089;BME280;45961;53.574;55.878;2023-05-20T00:03:51;100313.97;;;10.58;98.12
60089;BME280;45961;53.574;55.878;2023-05-20T00:04:52;100305.31;;;10.55;97.80
60089;BME280;45961;53.574;55.878;2023-05-20T00:05:53;100306.19;;;10.54;97.49
60089;BME280;45961;53.574;55.878;2023-05-20T00:06:54;100312.19;;;10.51;97.14
60089;BME280;45961;53.574;55.878;2023-05-20T00:07:55;100322.47;;;10.47;96.65
60089;BME280;45961;53.574;55.878;2023-05-20T00:08:56;100319.13;;;10.55;96.65
60089;BME280;45961;53.574;55.878;2023-05-20T00:09:59;100309.84;;;10.74;96.47
60089;BME280;45961;53.574;55.878;2023-05-20T00:11:00;100317.69;;;10.83;96.08
60089;BME280;45961;53.574;55.878;2023-05-20T00:12:01;100312.50;;;10.83;95.75
60089;BME280;45961;53.574;55.878;2023-05-20T00:13:02;100309.94;;;10.86;95.46
60089;BME280;45961;53.574;55.878;2023-05-20T00:14:04;100309.09;;;10.89;95.05
60089;BME280;45961;53.574;55.878;2023-05-20T00:15:05;100304.84;;;10.97;94.93
60089;BME280;45961;53.574;55.878;2023-05-20T00:16:07;100313.50;;;11.01;94.65
60089;BME280;45961;53.574;55.878;2023-05-20T00:17:08;100315.28;;;11.03;94.33
60089;BME280;45961;53.574;55.878;2023-05-20T00:18:09;100317.03;;;11.09;93.82
60089;BME280;45961;53.574;55.878;2023-05-20T00:19:10;100304.97;;;11.11;93.45
60089;BME280;45961;53.574;55.878;2023-05-20T00:20:11;100305.91;;;11.18;93.05
60089;BME280;45961;53.574;55.878;2023-05-20T00:21:12;100315.34;;;11.11;92.73
60089;BME280;45961;53.574;55.878;2023-05-20T00:22:13;100310.91;;;11.01;92.29
60089;BME280;45961;53.574;55.878;2023-05-20T00:23:15;100304.91;;;11.03;92.12
60089;BME280;45961;53.574;55.878;2023-05-20T00:24:16;100316.09;;;11.01;91.93
60089;BME280;45961;53.574;55.878;2023-05-20T00:25:17;100313.50;;;10.98;91.74
60089;BME280;45961;53.574;55.878;2023-05-20T00:26:18;100310.81;;;10.87;91.77
60089;BME280;45961;53.574;55.878;2023-05-20T00:27:26;100316.88;;;10.91;92.17
60089;BME280;45961;53.574;55.878;2023-05-20T00:28:27;100313.50;;;10.98;92.21
60089;BME280;45961;53.574;55.878;2023-05-20T00:29:28;100318.72;;;11.05;92.23
60089;BME280;45961;53.574;55.878;2023-05-20T00:30:29;100317.91;;;11.06;91.71
60089;BME280;45961;53.574;55.878;2023-05-20T00:31:30;100323.16;;;11.16;91.51
60089;BME280;45961;53.574;55.878;2023-05-20T00:32:31;100316.22;;;11.10;91.40
60089;BME280;45961;53.574;55.878;2023-05-20T00:33:32;100315.38;;;11.14;91.19
60089;BME280;45961;53.574;55.878;2023-05-20T00:34:33;100320.53;;;11.11;90.97
60089;BME280;45961;53.574;55.878;2023-05-20T00:35:34;100327.44;;;11.10;90.92
60089;BME280;45961;53.574;55.878;2023-05-20T00:36:35;100317.91;;;11.09;90.93
60089;BME280;45961;53.574;55.878;2023-05-20T00:37:36;100324.00;;;11.16;90.66
60089;BME280;45961;53.574;55.878;2023-05-20T00:38:37;100318.78;;;11.11;90.75
60089;BME280;45961;53.574;55.878;2023-05-20T00:39:38;100328.28;;;11.11;90.81
60089;BME280;45961;53.574;55.878;2023-05-20T00:40:39;100328.31;;;11.17;91.18
60089;BME280;45961;53.574;55.878;2023-05-20T00:41:41;100325.84;;;11.26;90.90
60089;BME280;45961;53.574;55.878;2023-05-20T00:42:42;100335.31;;;11.23;90.57
60089;BME280;45961;53.574;55.878;2023-05-20T00:43:43;100330.94;;;11.19;90.39
60089;BME280;45961;53.574;55.878;2023-05-20T00:44:45;100321.31;;;11.02;90.95
60089;BME280;45961;53.574;55.878;2023-05-20T00:45:46;100323.94;;;11.07;91.41
60089;BME280;45961;53.574;55.878;2023-05-20T00:46:47;100328.31;;;11.17;91.16
60089;BME280;45961;53.574;55.878;2023-05-20T00:47:49;100331.69;;;11.02;90.71
60089;BME280;45961;53.574;55.878;2023-05-20T00:48:50;100333.44;;;11.09;90.83
60089;BME280;45961;53.574;55.878;2023-05-20T00:49:51;100329.06;;;10.99;90.70
60089;BME280;45961;53.574;55.878;2023-05-20T00:50:52;100329.97;;;11.07;90.65
60089;BME280;45961;53.574;55.878;2023-05-20T00:51:54;100330.78;;;10.99;90.58
60089;BME280;45961;53.574;55.878;2023-05-20T00:52:54;100338.59;;;11.03;90.79
60089;BME280;45961;53.574;55.878;2023-05-20T00:53:57;100334.31;;;11.07;90.64
60089;BME280;45961;53.574;55.878;2023-05-20T00:54:58;100323.88;;;10.99;90.54
60089;BME280;45961;53.574;55.878;2023-05-20T00:56:00;100334.22;;;11.01;90.86
60089;BME280;45961;53.574;55.878;2023-05-20T00:57:02;100336.94;;;11.11;90.71
60089;BME280;45961;53.574;55.878;2023-05-20T00:58:06;100337.00;;;11.19;90.59
60089;BME280;45961;53.574;55.878;2023-05-20T00:59:07;100336.97;;;11.16;90.28
60089;BME280;45961;53.574;55.878;2023-05-20T01:00:09;100341.22;;;11.08;89.92
60089;BME280;45961;53.574;55.878;2023-05-20T01:01:11;100333.44;;;11.06;90.25
60089;BME280;45961;53.574;55.878;2023-05-20T01:02:13;100341.22;;;11.08;90.15
60089;BME280;45961;53.574;55.878;2023-05-20T01:03:14;100345.59;;;11.15;90.37
60089;BME280;45961;53.574;55.878;2023-05-20T01:04:16;100336.94;;;11.11;90.23
60089;BME280;45961;53.574;55.878;2023-05-20T01:05:17;100345.59;;;11.17;90.28
60089;BME280;45961;53.574;55.878;2023-05-20T01:06:18;100341.28;;;11.17;90.00
60089;BME280;45961;53.574;55.878;2023-05-20T01:07:20;100339.66;;;11.27;89.68
60089;BME280;45961;53.574;55.878;2023-05-20T01:08:22;100340.56;;;11.30;89.68
60089;BME280;45961;53.574;55.878;2023-05-20T01:09:24;100342.97;;;11.12;89.84
60089;BME280;45961;53.574;55.878;2023-05-20T01:10:27;100346.44;;;11.11;90.11
60089;BME280;45961;53.574;55.878;2023-05-20T01:11:37;100337.06;;;11.28;90.17
60089;BME280;45961;53.574;55.878;2023-05-20T01:12:48;100338.78;;;11.28;90.03
60089;BME280;45961;53.574;55.878;2023-05-20T01:13:53;100342.19;;;11.19;90.10
60089;BME280;45961;53.574;55.878;2023-05-20T01:14:55;100349.13;;;11.22;89.93
60089;BME280;45961;53.574;55.878;2023-05-20T01:16:02;100345.69;;;11.26;89.69
60089;BME280;45961;53.574;55.878;2023-05-20T01:17:04;100342.41;;;11.47;89.54
60089;BME280;45961;53.574;55.878;2023-05-20T01:18:11;100337.16;;;11.39;89.06
60089;BME280;45961;53.574;55.878;2023-05-20T01:19:30;100344.09;;;11.43;88.61
60089;BME280;45961;53.574;55.878;2023-05-20T01:20:34;100355.41;;;11.50;88.36
60089;BME280;45961;53.574;55.878;2023-05-20T01:21:37;100344.16;;;11.52;88.38
60089;BME280;45961;53.574;55.878;2023-05-20T01:22:54;100343.28;;;11.46;88.23
60089;BME280;45961;53.574;55.878;2023-05-20T01:23:56;100337.06;;;11.27;87.84
60089;BME280;45961;53.574;55.878;2023-05-20T01:24:57;100332.88;;;11.43;88.21
60089;BME280;45961;53.574;55.878;2023-05-20T01:26:00;100346.84;;;11.65;87.70
60089;BME280;45961;53.574;55.878;2023-05-20T01:27:02;100349.41;;;11.60;87.34
60089;BME280;45961;53.574;55.878;2023-05-20T01:28:03;100345.81;;;11.44;87.38
60089;BME280;45961;53.574;55.878;2023-05-20T01:29:04;100346.69;;;11.43;87.70
60089;BME280;45961;53.574;55.878;2023-05-20T01:30:06;100347.66;;;11.60;87.59
60089;BME280;45961;53.574;55.878;2023-05-20T01:31:19;100343.28;;;11.53;86.82
60089;BME280;45961;53.574;55.878;2023-05-20T01:32:37;100328.59;;;11.51;86.56
60089;BME280;45961;53.574;55.878;2023-05-20T01:33:42;100340.81;;;11.69;86.59
60089;BME280;45961;53.574;55.878;2023-05-20T01:34:43;100344.56;;;12.15;85.95
60089;BME280;45961;53.574;55.878;2023-05-20T01:35:45;100344.66;;;12.30;84.72
60089;BME280;45961;53.574;55.878;2023-05-20T01:36:47;100344.66;;;12.40;83.14
60089;BME280;45961;53.574;55.878;2023-05-20T01:37:51;100342.94;;;12.35;82.93
60089;BME280;45961;53.574;55.878;2023-05-20T01:38:53;100341.13;;;12.21;82.91
60089;BME280;45961;53.574;55.878;2023-05-20T01:39:56;100348.81;;;11.99;83.28
60089;BME280;45961;53.574;55.878;2023-05-20T01:40:58;100344.50;;;12.01;83.74
60089;BME280;45961;53.574;55.878;2023-05-20T01:42:00;100337.41;;;11.74;83.96
60089;BME280;45961;53.574;55.878;2023-05-20T01:43:02;100342.59;;;11.77;84.70
60089;BME280;45961;53.574;55.878;2023-05-20T01:44:03;100347.03;;;11.88;84.98
60089;BME280;45961;53.574;55.878;2023-05-20T01:45:05;100350.50;;;11.91;84.74
60089;BME280;45961;53.574;55.878;2023-05-20T01:46:06;100338.38;;;11.89;84.54
60089;BME280;45961;53.574;55.878;2023-05-20T01:47:07;100345.19;;;11.77;84.44
60089;BME280;45961;53.574;55.878;2023-05-20T01:48:10;100348.63;;;11.70;85.08
60089;BME280;45961;53.574;55.878;2023-05-20T01:49:11;100350.47;;;11.87;85.05
60089;BME280;45961;53.574;55.878;2023-05-20T01:50:12;100348.78;;;11.93;84.84
60089;BME280;45961;53.574;55.878;2023-05-20T01:51:13;100355.59;;;11.80;84.75
60089;BME280;45961;53.574;55.878;2023-05-20T01:52:14;100355.63;;;11.85;85.28
60089;BME280;45961;53.574;55.878;2023-05-20T01:53:15;100349.53;;;11.78;85.34
60089;BME280;45961;53.574;55.878;2023-05-20T01:54:16;100343.56;;;11.89;85.17
60089;BME280;45961;53.574;55.878;2023-05-20T01:55:17;100352.25;;;11.95;85.00
60089;BME280;45961;53.574;55.878;2023-05-20T01:56:18;100348.78;;;11.98;84.76
60089;BME280;45961;53.574;55.878;2023-05-20T01:57:20;100353.09;;;11.91;84.68
60089;BME280;45961;53.574;55.878;2023-05-20T01:58:23;100356.63;;;12.02;84.70
60089;BME280;45961;53.574;55.878;2023-05-20T01:59:25;100360.94;;;11.99;84.47
60089;BME280;45961;53.574;55.878;2023-05-20T02:00:26;100344.28;;;11.72;84.23
60089;BME280;45961;53.574;55.878;2023-05-20T02:01:27;100334.84;;;11.80;84.59
60089;BME280;45961;53.574;55.878;2023-05-20T02:02:28;100365.16;;;11.89;84.59
60089;BME280;45961;53.574;55.878;2023-05-20T02:03:29;100355.50;;;11.67;84.62
60089;BME280;45961;53.574;55.878;2023-05-20T02:04:30;100362.28;;;11.48;85.57
60089;BME280;45961;53.574;55.878;2023-05-20T02:05:31;100356.25;;;11.52;86.01
60089;BME280;45961;53.574;55.878;2023-05-20T02:06:32;100360.69;;;11.67;85.94
60089;BME280;45961;53.574;55.878;2023-05-20T02:07:33;100361.59;;;11.73;85.58
60089;BME280;45961;53.574;55.878;2023-05-20T02:08:34;100370.16;;;11.60;85.24
60089;BME280;45961;53.574;55.878;2023-05-20T02:09:36;100367.50;;;11.51;85.36
60089;BME280;45961;53.574;55.878;2023-05-20T02:10:37;100364.13;;;11.66;85.63
60089;BME280;45961;53.574;55.878;2023-05-20T02:11:39;100362.47;;;11.75;85.32
60089;BME280;45961;53.574;55.878;2023-05-20T02:12:41;100372.06;;;11.84;84.84
60089;BME280;45961;53.574;55.878;2023-05-20T02:13:42;100371.09;;;11.71;84.98
60089;BME280;45961;53.574;55.878;2023-05-20T02:14:44;100372.78;;;11.69;85.01
60089;BME280;45961;53.574;55.878;2023-05-20T02:15:46;100369.25;;;11.55;85.47
60089;BME280;45961;53.574;55.878;2023-05-20T02:16:47;100370.16;;;11.63;85.42
60089;BME280;45961;53.574;55.878;2023-05-20T02:17:48;100358.91;;;11.58;85.39
60089;BME280;45961;53.574;55.878;2023-05-20T02:18:49;100372.72;;;11.54;85.59
60089;BME280;45961;53.574;55.878;2023-05-20T02:19:53;100369.28;;;11.61;85.50
60089;BME280;45961;53.574;55.878;2023-05-20T02:20:54;100372.69;;;11.57;85.70
60089;BME280;45961;53.574;55.878;2023-05-20T02:21:55;100365.75;;;11.53;85.68
60089;BME280;45961;53.574;55.878;2023-05-20T02:22:56;100371.91;;;11.63;85.53
60089;BME280;45961;53.574;55.878;2023-05-20T02:23:57;100373.63;;;11.62;85.25
60089;BME280;45961;53.574;55.878;2023-05-20T02:25:00;100365.69;;;11.44;85.45
60089;BME280;45961;53.574;55.878;2023-05-20T02:26:02;100377.97;;;11.66;85.46
60089;BME280;45961;53.574;55.878;2023-05-20T02:27:03;100366.66;;;11.56;85.40
60089;BME280;45961;53.574;55.878;2023-05-20T02:28:08;100370.00;;;11.39;85.05
60089;BME280;45961;53.574;55.878;2023-05-20T02:29:10;100374.41;;;11.50;85.41
60089;BME280;45961;53.574;55.878;2023-05-20T02:30:11;100377.72;;;11.35;85.33
60089;BME280;45961;53.574;55.878;2023-05-20T02:31:12;100361.28;;;11.30;85.47
60089;BME280;45961;53.574;55.878;2023-05-20T02:32:13;100381.22;;;11.41;85.68
60089;BME280;45961;53.574;55.878;2023-05-20T02:33:14;100383.75;;;11.31;86.00
60089;BME280;45961;53.574;55.878;2023-05-20T02:34:19;100377.88;;;11.54;85.87
60089;BME280;45961;53.574;55.878;2023-05-20T02:35:20;100378.75;;;11.57;85.41
60089;BME280;45961;53.574;55.878;2023-05-20T02:36:22;100370.16;;;11.58;85.03
60089;BME280;45961;53.574;55.878;2023-05-20T02:37:23;100376.22;;;11.62;84.88
60089;BME280;45961;53.574;55.878;2023-05-20T02:38:24;100375.22;;;11.48;85.01
60089;BME280;45961;53.574;55.878;2023-05-20T02:39:25;100381.22;;;11.41;85.21
60089;BME280;45961;53.574;55.878;2023-05-20T02:40:26;100376.19;;;11.60;85.19
60089;BME280;45961;53.574;55.878;2023-05-20T02:41:28;100381.41;;;11.62;84.86
60089;BME280;45961;53.574;55.878;2023-05-20T02:42:29;100375.41;;;11.72;84.60
60089;BME280;45961;53.574;55.878;2023-05-20T02:43:31;100383.22;;;11.77;84.40
60089;BME280;45961;53.574;55.878;2023-05-20T02:44:35;100378.00;;;11.72;84.29
60089;BME280;45961;53.574;55.878;2023-05-20T02:45:36;100381.44;;;11.68;84.49
60089;BME280;45961;53.574;55.878;2023-05-20T02:46:37;100378.06;;;11.81;84.35
60089;BME280;45961;53.574;55.878;2023-05-20T02:47:39;100378.13;;;11.83;84.10
60089;BME280;45961;53.574;55.878;2023-05-20T02:48:40;100378.19;;;11.97;83.92
60089;BME280;45961;53.574;55.878;2023-05-20T02:49:41;100377.34;;;12.01;83.44
60089;BME280;45961;53.574;55.878;2023-05-20T02:50:42;100374.72;;;11.93;83.22
60089;BME280;45961;53.574;55.878;2023-05-20T02:51:44;100372.97;;;11.94;83.15
60089;BME280;45961;53.574;55.878;2023-05-20T02:52:45;100375.53;;;11.83;83.40
60089;BME280;45961;53.574;55.878;2023-05-20T02:53:47;100380.75;;;11.88;83.75
60089;BME280;45961;53.574;55.878;2023-05-20T02:54:48;100382.56;;;12.02;83.48
60089;BME280;45961;53.574;55.878;2023-05-20T02:55:49;100377.41;;;12.07;83.17
60089;BME280;45961;53.574;55.878;2023-05-20T02:56:51;100375.72;;;12.15;82.82
60089;BME280;45961;53.574;55.878;2023-05-20T02:57:52;100384.34;;;12.13;82.75
60089;BME280;45961;53.574;55.878;2023-05-20T02:58:53;100383.47;;;12.12;82.78
60089;BME280;45961;53.574;55.878;2023-05-20T02:59:55;100377.38;;;12.04;83.03
60089;BME280;45961;53.574;55.878;2023-05-20T03:00:56;100387.78;;;12.08;82.97
60089;BME280;45961;53.574;55.878;2023-05-20T03:01:57;100385.13;;;11.95;83.00
60089;BME280;45961;53.574;55.878;2023-05-20T03:02:59;100378.25;;;12.07;83.15
60089;BME280;45961;53.574;55.878;2023-05-20T03:04:02;100383.41;;;12.06;82.78
60089;BME280;45961;53.574;55.878;2023-05-20T03:05:03;100381.72;;;12.08;82.56
60089;BME280;45961;53.574;55.878;2023-05-20T03:06:06;100386.09;;;12.15;82.64
60089;BME280;45961;53.574;55.878;2023-05-20T03:07:07;100380.91;;;12.20;82.35
60089;BME280;45961;53.574;55.878;2023-05-20T03:08:09;100385.28;;;12.22;82.39
60089;BME280;45961;53.574;55.878;2023-05-20T03:09:10;100384.38;;;12.14;82.65
60089;BME280;45961;53.574;55.878;2023-05-20T03:10:11;100386.19;;;12.30;82.69
60089;BME280;45961;53.574;55.878;2023-05-20T03:11:13;100379.25;;;12.31;82.14
60089;BME280;45961;53.574;55.878;2023-05-20T03:12:15;100390.53;;;12.45;81.84
60089;BME280;45961;53.574;55.878;2023-05-20T03:13:17;100388.81;;;12.40;81.62
60089;BME280;45961;53.574;55.878;2023-05-20T03:14:18;100378.44;;;12.47;81.39
60089;BME280;45961;53.574;55.878;2023-05-20T03:15:19;100386.25;;;12.56;81.06
60089;BME280;45961;53.574;55.878;2023-05-20T03:16:20;100384.56;;;12.65;80.90
60089;BME280;45961;53.574;55.878;2023-05-20T03:17:21;100385.47;;;12.77;80.55
60089;BME280;45961;53.574;55.878;2023-05-20T03:18:22;100391.50;;;12.69;80.46
60089;BME280;45961;53.574;55.878;2023-05-20T03:19:23;100388.91;;;12.67;80.65
60089;BME280;45961;53.574;55.878;2023-05-20T03:20:24;100382.81;;;12.65;80.29
60089;BME280;45961;53.574;55.878;2023-05-20T03:21:26;100385.44;;;12.68;80.47
60089;BME280;45961;53.574;55.878;2023-05-20T03:22:28;100386.31;;;12.72;80.54
60089;BME280;45961;53.574;55.878;2023-05-20T03:23:30;100388.97;;;12.82;80.46
60089;BME280;45961;53.574;55.878;2023-05-20T03:24:31;100395.03;;;12.89;80.12
60089;BME280;45961;53.574;55.878;2023-05-20T03:25:33;100387.22;;;12.94;79.92
60089;BME280;45961;53.574;55.878;2023-05-20T03:26:34;100385.53;;;13.03;79.64
60089;BME280;45961;53.574;55.878;2023-05-20T03:27:38;100389.84;;;12.91;78.74
60089;BME280;45961;53.574;55.878;2023-05-20T03:28:44;100389.84;;;12.91;78.76
60089;BME280;45961;53.574;55.878;2023-05-20T03:29:45;100389.84;;;12.98;79.07
60089;BME280;45961;53.574;55.878;2023-05-20T03:30:48;100390.75;;;13.06;78.84
60089;BME280;45961;53.574;55.878;2023-05-20T03:31:55;100388.16;;;13.06;78.52
60089;BME280;45961;53.574;55.878;2023-05-20T03:32:57;100382.09;;;13.15;77.63
60089;BME280;45961;53.574;55.878;2023-05-20T03:33:59;100387.34;;;13.35;77.43
60089;BME280;45961;53.574;55.878;2023-05-20T03:35:00;100389.94;;;13.35;76.97
60089;BME280;45961;53.574;55.878;2023-05-20T03:36:01;100396.00;;;13.28;76.57
60089;BME280;45961;53.574;55.878;2023-05-20T03:37:02;100388.19;;;13.28;76.75
60089;BME280;45961;53.574;55.878;2023-05-20T03:38:04;100388.19;;;13.42;76.79
60089;BME280;45961;53.574;55.878;2023-05-20T03:39:10;100390.78;;;13.29;76.49
60089;BME280;45961;53.574;55.878;2023-05-20T03:40:12;100387.34;;;13.35;76.38
60089;BME280;45961;53.574;55.878;2023-05-20T03:41:15;100381.25;;;13.44;76.35
60089;BME280;45961;53.574;55.878;2023-05-20T03:42:16;100389.94;;;13.49;75.87
60089;BME280;45961;53.574;55.878;2023-05-20T03:43:17;100359.59;;;13.31;75.83
60089;BME280;45961;53.574;55.878;2023-05-20T03:44:18;100387.31;;;13.50;75.58
60089;BME280;45961;53.574;55.878;2023-05-20T03:45:19;100381.25;;;13.73;75.29
60089;BME280;45961;53.574;55.878;2023-05-20T03:46:46;100385.59;;;13.55;74.52
60089;BME280;45961;53.574;55.878;2023-05-20T03:47:47;100376.91;;;13.56;74.22
60089;BME280;45961;53.574;55.878;2023-05-20T03:48:52;100382.97;;;13.62;74.26
60089;BME280;45961;53.574;55.878;2023-05-20T03:49:54;100382.13;;;13.64;73.76
60089;BME280;45961;53.574;55.878;2023-05-20T03:50:55;100389.03;;;13.65;73.70
60089;BME280;45961;53.574;55.878;2023-05-20T03:51:56;100390.75;;;13.78;73.68
60089;BME280;45961;53.574;55.878;2023-05-20T03:52:57;100380.38;;;13.74;72.78
60089;BME280;45961;53.574;55.878;2023-05-20T03:53:59;100382.13;;;13.69;72.40
60089;BME280;45961;53.574;55.878;2023-05-20T03:55:01;100385.56;;;13.88;72.37
60089;BME280;45961;53.574;55.878;2023-05-20T03:56:03;100376.00;;;13.93;72.55
60089;BME280;45961;53.574;55.878;2023-05-20T03:57:05;100372.53;;;14.00;72.66
60089;BME280;45961;53.574;55.878;2023-05-20T03:58:06;100380.25;;;14.18;72.13
60089;BME280;45961;53.574;55.878;2023-05-20T03:59:08;100383.75;;;14.14;71.82
60089;BME280;45961;53.574;55.878;2023-05-20T04:00:10;100382.84;;;14.26;71.79
60089;BME280;45961;53.574;55.878;2023-05-20T04:01:22;100370.69;;;14.28;70.92
60089;BME280;45961;53.574;55.878;2023-05-20T04:02:26;100374.09;;;14.50;70.65
60089;BME280;45961;53.574;55.878;2023-05-20T04:03:27;100378.44;;;14.55;69.86
60089;BME280;45961;53.574;55.878;2023-05-20T04:04:29;100373.97;;;14.74;69.37
60089;BME280;45961;53.574;55.878;2023-05-20T04:05:30;100369.59;;;14.84;68.46
60089;BME280;45961;53.574;55.878;2023-05-20T04:06:31;100364.38;;;14.82;67.71
60089;BME280;45961;53.574;55.878;2023-05-20T04:07:34;100366.13;;;14.80;68.26
60089;BME280;45961;53.574;55.878;2023-05-20T04:08:36;100364.38;;;14.82;67.96
60089;BME280;45961;53.574;55.878;2023-05-20T04:09:38;100366.00;;;14.99;67.31
60089;BME280;45961;53.574;55.878;2023-05-20T04:10:41;100371.09;;;15.17;66.98
60089;BME280;45961;53.574;55.878;2023-05-20T04:11:42;100369.50;;;15.01;65.26
60089;BME280;45961;53.574;55.878;2023-05-20T04:12:43;100368.41;;;15.29;65.45
60089;BME280;45961;53.574;55.878;2023-05-20T04:13:45;100378.00;;;15.23;64.75
60089;BME280;45961;53.574;55.878;2023-05-20T04:14:46;100365.84;;;15.22;64.50
60089;BME280;45961;53.574;55.878;2023-05-20T04:15:51;100364.91;;;15.34;64.21
60089;BME280;45961;53.574;55.878;2023-05-20T04:16:53;100357.72;;;15.65;64.46
60089;BME280;45961;53.574;55.878;2023-05-20T04:17:54;100372.50;;;15.61;62.80
60089;BME280;45961;53.574;55.878;2023-05-20T04:18:55;100369.63;;;15.90;62.13
60089;BME280;45961;53.574;55.878;2023-05-20T04:19:59;100362.44;;;16.12;61.38
60089;BME280;45961;53.574;55.878;2023-05-20T04:21:00;100363.97;;;16.28;60.94
60089;BME280;45961;53.574;55.878;2023-05-20T04:22:02;100361.88;;;16.57;60.48
60089;BME280;45961;53.574;55.878;2023-05-20T04:23:03;100371.25;;;16.71;59.86
60089;BME280;45961;53.574;55.878;2023-05-20T04:24:04;100362.59;;;16.69;59.87
60089;BME280;45961;53.574;55.878;2023-05-20T04:25:07;100366.31;;;16.50;59.46
60089;BME280;45961;53.574;55.878;2023-05-20T04:26:09;100369.03;;;16.42;59.68
60089;BME280;45961;53.574;55.878;2023-05-20T04:27:10;100371.84;;;16.25;59.71
60089;BME280;45961;53.574;55.878;2023-05-20T04:28:11;100366.31;;;16.50;60.66
60089;BME280;45961;53.574;55.878;2023-05-20T04:29:13;100362.75;;;16.57;60.10
60089;BME280;45961;53.574;55.878;2023-05-20T04:30:15;100361.06;;;16.51;58.41
60089;BME280;45961;53.574;55.878;2023-05-20T04:31:18;100367.66;;;16.80;58.57
60089;BME280;45961;53.574;55.878;2023-05-20T04:32:21;100366.00;;;16.77;57.86
60089;BME280;45961;53.574;55.878;2023-05-20T04:33:22;100365.25;;;16.65;57.40
60089;BME280;45961;53.574;55.878;2023-05-20T04:34:23;100368.28;;;17.00;57.50
60089;BME280;45961;53.574;55.878;2023-05-20T04:35:26;100360.16;;;17.17;57.65
60089;BME280;45961;53.574;55.878;2023-05-20T04:36:32;100366.16;;;17.25;57.08
60089;BME280;45961;53.574;55.878;2023-05-20T04:37:37;100361.00;;;17.21;55.80
60089;BME280;45961;53.574;55.878;2023-05-20T04:38:39;100362.38;;;17.42;55.47
60089;BME280;45961;53.574;55.878;2023-05-20T04:39:41;100363.44;;;17.28;55.68
60089;BME280;45961;53.574;55.878;2023-05-20T04:40:47;100361.59;;;17.35;55.69
60089;BME280;45961;53.574;55.878;2023-05-20T04:41:49;100361.84;;;17.21;54.71
60089;BME280;45961;53.574;55.878;2023-05-20T04:42:51;100363.44;;;17.28;55.48
60089;BME280;45961;53.574;55.878;2023-05-20T04:43:52;100364.44;;;17.23;55.22
60089;BME280;45961;53.574;55.878;2023-05-20T04:44:53;100338.41;;;17.66;55.31
60089;BME280;45961;53.574;55.878;2023-05-20T04:45:55;100352.38;;;17.65;54.49
60089;BME280;45961;53.574;55.878;2023-05-20T04:46:56;100357.75;;;17.56;54.34
60089;BME280;45961;53.574;55.878;2023-05-20T04:48:00;100343.28;;;17.37;54.46
60089;BME280;45961;53.574;55.878;2023-05-20T04:49:01;100359.84;;;17.36;55.67
60089;BME280;45961;53.574;55.878;2023-05-20T04:50:08;100366.41;;;17.61;56.07
60089;BME280;45961;53.574;55.878;2023-05-20T04:51:15;100353.38;;;17.57;54.01
60089;BME280;45961;53.574;55.878;2023-05-20T04:52:16;100354.88;;;17.71;54.32
60089;BME280;45961;53.574;55.878;2023-05-20T04:53:18;100361.22;;;17.58;54.75
60089;BME280;45961;53.574;55.878;2023-05-20T04:54:19;100353.34;;;17.61;55.75
60089;BME280;45961;53.574;55.878;2023-05-20T04:55:23;100358.28;;;17.78;53.90
60089;BME280;45961;53.574;55.878;2023-05-20T04:56:26;100364.50;;;17.71;53.80
60089;BME280;45961;53.574;55.878;2023-05-20T04:57:26;100363.25;;;17.42;54.02
60089;BME280;45961;53.574;55.878;2023-05-20T04:58:28;100358.81;;;17.46;53.38
60089;BME280;45961;53.574;55.878;2023-05-20T04:59:29;100352.94;;;17.84;53.76
60089;BME280;45961;53.574;55.878;2023-05-20T05:00:30;100330.88;;;17.96;51.33
60089;BME280;45961;53.574;55.878;2023-05-20T05:01:31;100357.28;;;18.29;51.28
60089;BME280;45961;53.574;55.878;2023-05-20T05:02:33;100353.47;;;18.45;51.64
60089;BME280;45961;53.574;55.878;2023-05-20T05:03:34;100364.25;;;17.86;51.71
60089;BME280;45961;53.574;55.878;2023-05-20T05:04:35;100350.31;;;17.84;53.29
60089;BME280;45961;53.574;55.878;2023-05-20T05:05:36;100358.28;;;17.78;54.04
60089;BME280;45961;53.574;55.878;2023-05-20T05:06:38;100354.63;;;17.87;53.99
60089;BME280;45961;53.574;55.878;2023-05-20T05:07:39;100351.81;;;17.97;53.19
60089;BME280;45961;53.574;55.878;2023-05-20T05:08:40;100364.78;;;17.52;53.64
60089;BME280;45961;53.574;55.878;2023-05-20T05:09:42;100346.44;;;17.57;54.82
60089;BME280;45961;53.574;55.878;2023-05-20T05:10:44;100359.44;;;18.10;54.99
60089;BME280;45961;53.574;55.878;2023-05-20T05:11:45;100351.97;;;17.90;54.08
60089;BME280;45961;53.574;55.878;2023-05-20T05:12:46;100346.97;;;17.76;54.20
60089;BME280;45961;53.574;55.878;2023-05-20T05:13:48;100342.59;;;17.78;53.07
60089;BME280;45961;53.574;55.878;2023-05-20T05:14:50;100349.78;;;18.12;52.69
60089;BME280;45961;53.574;55.878;2023-05-20T05:15:58;100355.91;;;18.11;49.40
60089;BME280;45961;53.574;55.878;2023-05-20T05:17:00;100338.09;;;18.28;50.40
60089;BME280;45961;53.574;55.878;2023-05-20T05:18:04;100345.09;;;18.29;50.08
60089;BME280;45961;53.574;55.878;2023-05-20T05:19:07;100351.25;;;18.27;49.56
60089;BME280;45961;53.574;55.878;2023-05-20T05:20:11;100343.38;;;18.27;50.78
60089;BME280;45961;53.574;55.878;2023-05-20T05:21:12;100342.53;;;18.66;51.54